Portada
METAR-TAF:

METAR-TAF

Aeroports :

Sheridan County Airport

Sheridan, Wyoming, Estats Units d'Amèrica

latitud: 44-46-10N, longitud: 106-58-08W, altitud: 1225 m

Observació

L'informe es va fer fa 1 hora i 11 minuts, a les 04:53 UTC
Vent calma
Temperatura 15°C
Humitat 72%
Pressió 1014 hPa
Visibilitat: 16.1 km
Cel cobert a una alçada de 10000 ft

METAR: KSHR 040453Z AUTO 00000KT 10SM OVC100 15/10 A2993 RMK AO2 SLP105 T01500100

Hora: 00:04 (06:04 UTC)

Pronòstic

L'informe es va fer fa 44 minuts, a les 05:20 UTC
Pronòstic vàlid del 04 a les 06 UTC al 05 a les 06 UTC
Vent 5 kt amb direcció variable
Visibilitat: 10 km
Núvols disperses a una alçada de 12000 ft
A partir de les 04 a les 2000 UTC
Vent 9 kt del Nord-Oest
Visibilitat: 10 km
Núvols disperses a una alçada de 10000 ft
Cel ennuvolat a una alçada de 20000 ft

TAF: KSHR 040520Z 0406/0506 VRB05KT P6SM SCT120 FM042000 31009KT P6SM SCT100 BKN200

Observacions i pronòstics meteorològics de més de 4000 aeroports (METAR i TAF).

Les estacions disponibles són els punts grocs i vermells al mapa.

Posi el ratolí al punt desitjat per veure el nom de l'estació.

Feu clic per veure les observacions i els pronòstics meteorològics.

Per canviar el mapa: feu clic els botons verds amb una creu de color negre per apropar; al botó verd amb un guió per allunyar la imatge; o en les fletxes verdes per a mapes adjacents.


METAR-TAF: